sensor_id;sensor_type;location;lat;lon;timestamp;P1;durP1;ratioP1;P2;durP2;ratioP2
6203;SDS011;3135;42.602;23.468;2022-12-10T00:02:19;6.93;;;2.80;;
6203;SDS011;3135;42.602;23.468;2022-12-10T00:04:44;8.70;;;2.73;;
6203;SDS011;3135;42.602;23.468;2022-12-10T00:07:10;7.97;;;2.60;;
6203;SDS011;3135;42.602;23.468;2022-12-10T00:09:35;8.70;;;2.60;;
6203;SDS011;3135;42.602;23.468;2022-12-10T00:12:01;4.13;;;2.57;;
6203;SDS011;3135;42.602;23.468;2022-12-10T00:14:26;17.70;;;6.30;;
6203;SDS011;3135;42.602;23.468;2022-12-10T00:16:51;6.10;;;3.10;;
6203;SDS011;3135;42.602;23.468;2022-12-10T00:19:17;5.40;;;2.90;;
6203;SDS011;3135;42.602;23.468;2022-12-10T00:21:42;6.60;;;2.93;;
6203;SDS011;3135;42.602;23.468;2022-12-10T00:24:09;7.05;;;2.75;;
6203;SDS011;3135;42.602;23.468;2022-12-10T00:26:35;7.65;;;2.70;;
6203;SDS011;3135;42.602;23.468;2022-12-10T00:29:03;7.65;;;3.97;;
6203;SDS011;3135;42.602;23.468;2022-12-10T00:31:34;6.07;;;2.55;;
6203;SDS011;3135;42.602;23.468;2022-12-10T00:34:02;8.03;;;3.70;;
6203;SDS011;3135;42.602;23.468;2022-12-10T00:36:34;11.32;;;5.05;;
6203;SDS011;3135;42.602;23.468;2022-12-10T00:39:02;10.15;;;3.00;;
6203;SDS011;3135;42.602;23.468;2022-12-10T00:41:28;8.50;;;3.30;;
6203;SDS011;3135;42.602;23.468;2022-12-10T00:43:54;11.07;;;6.53;;
6203;SDS011;3135;42.602;23.468;2022-12-10T00:46:20;13.70;;;6.88;;
6203;SDS011;3135;42.602;23.468;2022-12-10T00:48:45;12.47;;;4.47;;
6203;SDS011;3135;42.602;23.468;2022-12-10T00:51:13;9.20;;;3.72;;
6203;SDS011;3135;42.602;23.468;2022-12-10T00:53:40;4.97;;;3.00;;
6203;SDS011;3135;42.602;23.468;2022-12-10T00:56:08;5.38;;;2.92;;
6203;SDS011;3135;42.602;23.468;2022-12-10T00:58:35;7.63;;;2.85;;
6203;SDS011;3135;42.602;23.468;2022-12-10T01:03:33;10.63;;;5.72;;
6203;SDS011;3135;42.602;23.468;2022-12-10T01:06:07;6.40;;;3.15;;
6203;SDS011;3135;42.602;23.468;2022-12-10T01:08:53;7.10;;;2.70;;
6203;SDS011;3135;42.602;23.468;2022-12-10T01:11:21;12.27;;;7.33;;
6203;SDS011;3135;42.602;23.468;2022-12-10T01:13:51;5.55;;;2.88;;
6203;SDS011;3135;42.602;23.468;2022-12-10T01:16:17;14.43;;;7.32;;
6203;SDS011;3135;42.602;23.468;2022-12-10T01:18:44;11.23;;;6.88;;
6203;SDS011;3135;42.602;23.468;2022-12-10T01:21:12;11.43;;;7.00;;
6203;SDS011;3135;42.602;23.468;2022-12-10T01:23:41;13.50;;;7.23;;
6203;SDS011;3135;42.602;23.468;2022-12-10T01:26:09;11.73;;;5.80;;
6203;SDS011;3135;42.602;23.468;2022-12-10T01:28:37;10.87;;;3.50;;
6203;SDS011;3135;42.602;23.468;2022-12-10T01:31:07;8.73;;;3.60;;
6203;SDS011;3135;42.602;23.468;2022-12-10T01:33:35;7.28;;;3.13;;
6203;SDS011;3135;42.602;23.468;2022-12-10T01:36:03;8.35;;;2.42;;
6203;SDS011;3135;42.602;23.468;2022-12-10T01:38:33;9.38;;;2.72;;
6203;SDS011;3135;42.602;23.468;2022-12-10T01:40:59;14.13;;;4.95;;
6203;SDS011;3135;42.602;23.468;2022-12-10T01:43:26;11.00;;;4.03;;
6203;SDS011;3135;42.602;23.468;2022-12-10T01:45:52;6.97;;;2.67;;
6203;SDS011;3135;42.602;23.468;2022-12-10T01:48:17;4.37;;;2.40;;
6203;SDS011;3135;42.602;23.468;2022-12-10T01:50:43;4.85;;;2.67;;
6203;SDS011;3135;42.602;23.468;2022-12-10T01:53:09;6.53;;;2.75;;
6203;SDS011;3135;42.602;23.468;2022-12-10T01:55:40;4.93;;;2.87;;
6203;SDS011;3135;42.602;23.468;2022-12-10T01:58:06;6.20;;;2.50;;
6203;SDS011;3135;42.602;23.468;2022-12-10T02:00:32;5.68;;;3.38;;
6203;SDS011;3135;42.602;23.468;2022-12-10T02:03:08;12.85;;;5.22;;
6203;SDS011;3135;42.602;23.468;2022-12-10T02:06:02;7.73;;;2.90;;
6203;SDS011;3135;42.602;23.468;2022-12-10T02:09:43;7.43;;;2.90;;
6203;SDS011;3135;42.602;23.468;2022-12-10T02:11:40;7.77;;;2.60;;
6203;SDS011;3135;42.602;23.468;2022-12-10T02:20:15;19.13;;;5.85;;
6203;SDS011;3135;42.602;23.468;2022-12-10T02:25:26;9.20;;;4.82;;
6203;SDS011;3135;42.602;23.468;2022-12-10T02:28:03;14.00;;;5.72;;
6203;SDS011;3135;42.602;23.468;2022-12-10T02:30:37;14.03;;;5.93;;
6203;SDS011;3135;42.602;23.468;2022-12-10T02:33:04;17.40;;;5.85;;
6203;SDS011;3135;42.602;23.468;2022-12-10T02:35:33;12.25;;;4.03;;
6203;SDS011;3135;42.602;23.468;2022-12-10T02:38:06;11.02;;;3.97;;
6203;SDS011;3135;42.602;23.468;2022-12-10T02:40:36;10.55;;;4.70;;
6203;SDS011;3135;42.602;23.468;2022-12-10T02:43:04;19.80;;;4.65;;
6203;SDS011;3135;42.602;23.468;2022-12-10T02:45:32;10.35;;;4.88;;
6203;SDS011;3135;42.602;23.468;2022-12-10T02:47:59;6.20;;;3.60;;
6203;SDS011;3135;42.602;23.468;2022-12-10T02:50:27;8.63;;;3.05;;
6203;SDS011;3135;42.602;23.468;2022-12-10T02:52:52;9.43;;;4.80;;
6203;SDS011;3135;42.602;23.468;2022-12-10T02:55:18;5.63;;;2.30;;
6203;SDS011;3135;42.602;23.468;2022-12-10T03:00:15;7.45;;;3.40;;
6203;SDS011;3135;42.602;23.468;2022-12-10T03:02:59;8.15;;;3.45;;
6203;SDS011;3135;42.602;23.468;2022-12-10T03:08:05;61.33;;;18.87;;
6203;SDS011;3135;42.602;23.468;2022-12-10T03:10:44;26.50;;;8.52;;
6203;SDS011;3135;42.602;23.468;2022-12-10T03:13:26;15.38;;;6.47;;
6203;SDS011;3135;42.602;23.468;2022-12-10T03:16:14;12.95;;;5.18;;
6203;SDS011;3135;42.602;23.468;2022-12-10T03:18:41;11.45;;;4.30;;
6203;SDS011;3135;42.602;23.468;2022-12-10T03:21:10;7.13;;;2.60;;
6203;SDS011;3135;42.602;23.468;2022-12-10T03:23:39;8.93;;;3.10;;
6203;SDS011;3135;42.602;23.468;2022-12-10T03:26:07;10.68;;;3.60;;
6203;SDS011;3135;42.602;23.468;2022-12-10T03:28:36;8.32;;;4.40;;
6203;SDS011;3135;42.602;23.468;2022-12-10T03:31:06;9.20;;;4.60;;
6203;SDS011;3135;42.602;23.468;2022-12-10T03:33:34;12.77;;;4.63;;
6203;SDS011;3135;42.602;23.468;2022-12-10T03:36:00;13.88;;;6.50;;
6203;SDS011;3135;42.602;23.468;2022-12-10T03:38:27;15.40;;;5.37;;
6203;SDS011;3135;42.602;23.468;2022-12-10T03:40:52;16.38;;;7.10;;
6203;SDS011;3135;42.602;23.468;2022-12-10T03:43:18;19.30;;;11.00;;
6203;SDS011;3135;42.602;23.468;2022-12-10T03:45:45;15.63;;;6.65;;
6203;SDS011;3135;42.602;23.468;2022-12-10T03:48:11;18.03;;;9.03;;
6203;SDS011;3135;42.602;23.468;2022-12-10T03:50:36;11.13;;;5.50;;
6203;SDS011;3135;42.602;23.468;2022-12-10T03:53:02;34.17;;;19.13;;
6203;SDS011;3135;42.602;23.468;2022-12-10T03:55:27;9.87;;;4.73;;
6203;SDS011;3135;42.602;23.468;2022-12-10T03:57:52;11.63;;;4.67;;
6203;SDS011;3135;42.602;23.468;2022-12-10T04:00:18;11.00;;;4.40;;
6203;SDS011;3135;42.602;23.468;2022-12-10T04:02:43;7.80;;;3.50;;
6203;SDS011;3135;42.602;23.468;2022-12-10T04:05:08;6.93;;;3.10;;
6203;SDS011;3135;42.602;23.468;2022-12-10T04:07:34;3.47;;;1.98;;
6203;SDS011;3135;42.602;23.468;2022-12-10T04:10:00;7.47;;;2.67;;
6203;SDS011;3135;42.602;23.468;2022-12-10T04:12:25;8.77;;;2.03;;
6203;SDS011;3135;42.602;23.468;2022-12-10T04:14:51;2.00;;;1.30;;
6203;SDS011;3135;42.602;23.468;2022-12-10T04:17:35;3.83;;;1.70;;
6203;SDS011;3135;42.602;23.468;2022-12-10T04:20:00;3.85;;;1.50;;
6203;SDS011;3135;42.602;23.468;2022-12-10T04:22:26;2.28;;;1.20;;
6203;SDS011;3135;42.602;23.468;2022-12-10T04:25:23;2.40;;;1.40;;
6203;SDS011;3135;42.602;23.468;2022-12-10T04:28:07;5.25;;;1.60;;
6203;SDS011;3135;42.602;23.468;2022-12-10T04:30:33;3.50;;;1.90;;
6203;SDS011;3135;42.602;23.468;2022-12-10T04:32:58;4.40;;;1.97;;
6203;SDS011;3135;42.602;23.468;2022-12-10T04:35:23;2.00;;;1.40;;
6203;SDS011;3135;42.602;23.468;2022-12-10T04:37:49;3.60;;;1.50;;
6203;SDS011;3135;42.602;23.468;2022-12-10T04:40:14;3.80;;;1.57;;
6203;SDS011;3135;42.602;23.468;2022-12-10T04:42:40;4.50;;;1.60;;
6203;SDS011;3135;42.602;23.468;2022-12-10T04:45:05;5.57;;;1.97;;
6203;SDS011;3135;42.602;23.468;2022-12-10T04:47:31;3.50;;;2.10;;
6203;SDS011;3135;42.602;23.468;2022-12-10T04:49:56;10.87;;;4.60;;
6203;SDS011;3135;42.602;23.468;2022-12-10T04:52:22;5.97;;;2.50;;
6203;SDS011;3135;42.602;23.468;2022-12-10T04:54:47;5.63;;;1.80;;
6203;SDS011;3135;42.602;23.468;2022-12-10T04:57:13;3.63;;;1.43;;
6203;SDS011;3135;42.602;23.468;2022-12-10T04:59:39;5.40;;;1.80;;
6203;SDS011;3135;42.602;23.468;2022-12-10T05:02:05;4.70;;;1.77;;
6203;SDS011;3135;42.602;23.468;2022-12-10T05:04:31;4.95;;;1.63;;
6203;SDS011;3135;42.602;23.468;2022-12-10T05:06:56;6.13;;;3.50;;
6203;SDS011;3135;42.602;23.468;2022-12-10T05:09:21;7.67;;;6.57;;
6203;SDS011;3135;42.602;23.468;2022-12-10T05:11:47;9.97;;;8.00;;
6203;SDS011;3135;42.602;23.468;2022-12-10T05:14:13;10.00;;;8.07;;
6203;SDS011;3135;42.602;23.468;2022-12-10T05:16:40;10.60;;;7.47;;
6203;SDS011;3135;42.602;23.468;2022-12-10T05:19:05;11.65;;;6.30;;
6203;SDS011;3135;42.602;23.468;2022-12-10T05:21:31;9.80;;;5.20;;
6203;SDS011;3135;42.602;23.468;2022-12-10T05:24:17;9.55;;;5.63;;
6203;SDS011;3135;42.602;23.468;2022-12-10T05:26:43;42.87;;;15.40;;
6203;SDS011;3135;42.602;23.468;2022-12-10T05:29:09;17.20;;;7.05;;
6203;SDS011;3135;42.602;23.468;2022-12-10T05:31:35;8.45;;;5.20;;
6203;SDS011;3135;42.602;23.468;2022-12-10T05:34:00;7.75;;;2.83;;
6203;SDS011;3135;42.602;23.468;2022-12-10T05:36:27;3.13;;;2.58;;
6203;SDS011;3135;42.602;23.468;2022-12-10T05:38:55;6.20;;;4.40;;
6203;SDS011;3135;42.602;23.468;2022-12-10T05:41:23;7.50;;;4.63;;
6203;SDS011;3135;42.602;23.468;2022-12-10T05:43:50;4.93;;;3.35;;
6203;SDS011;3135;42.602;23.468;2022-12-10T05:46:19;6.63;;;3.10;;
6203;SDS011;3135;42.602;23.468;2022-12-10T05:48:47;23.47;;;9.50;;
6203;SDS011;3135;42.602;23.468;2022-12-10T05:51:15;13.40;;;4.90;;
6203;SDS011;3135;42.602;23.468;2022-12-10T05:53:42;13.48;;;5.53;;
6203;SDS011;3135;42.602;23.468;2022-12-10T05:56:10;7.70;;;4.93;;
6203;SDS011;3135;42.602;23.468;2022-12-10T05:58:38;4.83;;;1.70;;
6203;SDS011;3135;42.602;23.468;2022-12-10T06:01:08;4.95;;;2.50;;
6203;SDS011;3135;42.602;23.468;2022-12-10T06:03:35;3.17;;;1.20;;
6203;SDS011;3135;42.602;23.468;2022-12-10T06:06:00;3.75;;;1.88;;
6203;SDS011;3135;42.602;23.468;2022-12-10T06:08:26;9.68;;;3.97;;
6203;SDS011;3135;42.602;23.468;2022-12-10T06:10:51;4.63;;;2.40;;
6203;SDS011;3135;42.602;23.468;2022-12-10T06:13:17;5.75;;;3.35;;
6203;SDS011;3135;42.602;23.468;2022-12-10T06:15:42;10.50;;;5.63;;
6203;SDS011;3135;42.602;23.468;2022-12-10T06:18:08;14.25;;;6.72;;
6203;SDS011;3135;42.602;23.468;2022-12-10T06:20:33;17.17;;;10.30;;
6203;SDS011;3135;42.602;23.468;2022-12-10T06:23:02;7.10;;;4.35;;
6203;SDS011;3135;42.602;23.468;2022-12-10T06:25:28;8.70;;;4.32;;
6203;SDS011;3135;42.602;23.468;2022-12-10T06:27:53;16.00;;;10.05;;
6203;SDS011;3135;42.602;23.468;2022-12-10T06:30:19;19.20;;;10.07;;
6203;SDS011;3135;42.602;23.468;2022-12-10T06:32:44;17.07;;;10.50;;
6203;SDS011;3135;42.602;23.468;2022-12-10T06:35:09;5.97;;;3.10;;
6203;SDS011;3135;42.602;23.468;2022-12-10T06:37:35;6.03;;;4.05;;
6203;SDS011;3135;42.602;23.468;2022-12-10T06:40:01;5.32;;;2.78;;
6203;SDS011;3135;42.602;23.468;2022-12-10T06:42:27;3.72;;;2.28;;
6203;SDS011;3135;42.602;23.468;2022-12-10T06:44:53;4.88;;;1.80;;
6203;SDS011;3135;42.602;23.468;2022-12-10T06:47:18;3.08;;;2.40;;
6203;SDS011;3135;42.602;23.468;2022-12-10T06:49:43;3.33;;;1.40;;
6203;SDS011;3135;42.602;23.468;2022-12-10T06:52:09;8.13;;;1.70;;
6203;SDS011;3135;42.602;23.468;2022-12-10T06:54:34;5.43;;;1.80;;
6203;SDS011;3135;42.602;23.468;2022-12-10T06:57:00;40.97;;;14.27;;
6203;SDS011;3135;42.602;23.468;2022-12-10T06:59:25;44.50;;;12.95;;
6203;SDS011;3135;42.602;23.468;2022-12-10T07:01:51;21.30;;;8.18;;
6203;SDS011;3135;42.602;23.468;2022-12-10T07:04:16;10.77;;;6.15;;
6203;SDS011;3135;42.602;23.468;2022-12-10T07:06:42;6.28;;;3.17;;
6203;SDS011;3135;42.602;23.468;2022-12-10T07:09:07;19.33;;;6.47;;
6203;SDS011;3135;42.602;23.468;2022-12-10T07:11:35;3.60;;;1.17;;
6203;SDS011;3135;42.602;23.468;2022-12-10T07:14:01;4.00;;;1.50;;
6203;SDS011;3135;42.602;23.468;2022-12-10T07:16:28;5.45;;;3.58;;
6203;SDS011;3135;42.602;23.468;2022-12-10T07:18:56;5.28;;;1.90;;
6203;SDS011;3135;42.602;23.468;2022-12-10T07:21:24;4.37;;;2.20;;
6203;SDS011;3135;42.602;23.468;2022-12-10T07:23:53;4.10;;;1.00;;
6203;SDS011;3135;42.602;23.468;2022-12-10T07:26:22;4.53;;;1.65;;
6203;SDS011;3135;42.602;23.468;2022-12-10T07:28:53;2.43;;;1.33;;
6203;SDS011;3135;42.602;23.468;2022-12-10T07:31:18;3.90;;;1.40;;
6203;SDS011;3135;42.602;23.468;2022-12-10T07:33:44;3.05;;;0.82;;
6203;SDS011;3135;42.602;23.468;2022-12-10T07:36:10;0.97;;;0.60;;
6203;SDS011;3135;42.602;23.468;2022-12-10T07:38:37;2.90;;;0.60;;
6203;SDS011;3135;42.602;23.468;2022-12-10T07:41:07;1.73;;;0.85;;
6203;SDS011;3135;42.602;23.468;2022-12-10T07:43:34;4.72;;;2.40;;
6203;SDS011;3135;42.602;23.468;2022-12-10T07:46:11;2.80;;;2.33;;
6203;SDS011;3135;42.602;23.468;2022-12-10T07:48:42;1.25;;;1.00;;
6203;SDS011;3135;42.602;23.468;2022-12-10T07:51:08;5.63;;;3.35;;
6203;SDS011;3135;42.602;23.468;2022-12-10T07:53:35;4.93;;;1.90;;
6203;SDS011;3135;42.602;23.468;2022-12-10T07:56:01;5.07;;;3.30;;
6203;SDS011;3135;42.602;23.468;2022-12-10T07:58:27;1.15;;;1.02;;
6203;SDS011;3135;42.602;23.468;2022-12-10T08:00:53;2.25;;;0.80;;
6203;SDS011;3135;42.602;23.468;2022-12-10T08:03:18;4.35;;;0.95;;
6203;SDS011;3135;42.602;23.468;2022-12-10T08:05:44;3.88;;;1.33;;
6203;SDS011;3135;42.602;23.468;2022-12-10T08:08:09;17.17;;;6.35;;
6203;SDS011;3135;42.602;23.468;2022-12-10T08:10:35;4.60;;;1.57;;
6203;SDS011;3135;42.602;23.468;2022-12-10T08:13:02;15.50;;;6.35;;
6203;SDS011;3135;42.602;23.468;2022-12-10T08:15:28;18.00;;;7.38;;
6203;SDS011;3135;42.602;23.468;2022-12-10T08:17:54;16.40;;;7.68;;
6203;SDS011;3135;42.602;23.468;2022-12-10T08:20:20;11.85;;;6.43;;
6203;SDS011;3135;42.602;23.468;2022-12-10T08:22:46;5.85;;;2.80;;
6203;SDS011;3135;42.602;23.468;2022-12-10T08:25:13;3.70;;;1.50;;
6203;SDS011;3135;42.602;23.468;2022-12-10T08:27:38;2.70;;;1.30;;
6203;SDS011;3135;42.602;23.468;2022-12-10T08:30:04;5.10;;;1.20;;
6203;SDS011;3135;42.602;23.468;2022-12-10T08:32:30;3.72;;;1.73;;
6203;SDS011;3135;42.602;23.468;2022-12-10T08:34:55;7.40;;;2.20;;
6203;SDS011;3135;42.602;23.468;2022-12-10T08:37:21;2.70;;;1.10;;
6203;SDS011;3135;42.602;23.468;2022-12-10T08:39:46;4.13;;;1.30;;
6203;SDS011;3135;42.602;23.468;2022-12-10T08:42:12;9.03;;;6.50;;
6203;SDS011;3135;42.602;23.468;2022-12-10T08:44:37;6.40;;;2.95;;
6203;SDS011;3135;42.602;23.468;2022-12-10T08:47:03;2.85;;;1.17;;
6203;SDS011;3135;42.602;23.468;2022-12-10T08:49:28;4.38;;;1.17;;
6203;SDS011;3135;42.602;23.468;2022-12-10T08:51:53;4.20;;;2.90;;
6203;SDS011;3135;42.602;23.468;2022-12-10T08:54:19;6.15;;;2.90;;
6203;SDS011;3135;42.602;23.468;2022-12-10T08:56:44;5.05;;;2.85;;
6203;SDS011;3135;42.602;23.468;2022-12-10T08:59:10;4.78;;;2.17;;
6203;SDS011;3135;42.602;23.468;2022-12-10T09:01:35;5.00;;;1.98;;
6203;SDS011;3135;42.602;23.468;2022-12-10T09:04:01;4.63;;;1.87;;
6203;SDS011;3135;42.602;23.468;2022-12-10T09:06:27;5.68;;;1.67;;
6203;SDS011;3135;42.602;23.468;2022-12-10T09:08:53;4.40;;;2.30;;
6203;SDS011;3135;42.602;23.468;2022-12-10T09:11:29;5.17;;;2.70;;
6203;SDS011;3135;42.602;23.468;2022-12-10T09:13:57;6.03;;;2.95;;
6203;SDS011;3135;42.602;23.468;2022-12-10T09:16:29;13.75;;;6.95;;
6203;SDS011;3135;42.602;23.468;2022-12-10T09:18:57;3.63;;;1.98;;
6203;SDS011;3135;42.602;23.468;2022-12-10T09:21:22;4.10;;;2.43;;
6203;SDS011;3135;42.602;23.468;2022-12-10T09:23:49;2.77;;;2.10;;
6203;SDS011;3135;42.602;23.468;2022-12-10T09:26:17;3.30;;;1.15;;
6203;SDS011;3135;42.602;23.468;2022-12-10T09:28:43;3.95;;;1.45;;
6203;SDS011;3135;42.602;23.468;2022-12-10T09:31:10;7.43;;;3.03;;
6203;SDS011;3135;42.602;23.468;2022-12-10T09:33:36;8.85;;;3.97;;
6203;SDS011;3135;42.602;23.468;2022-12-10T09:36:06;15.43;;;7.55;;
6203;SDS011;3135;42.602;23.468;2022-12-10T09:38:33;16.33;;;7.32;;
6203;SDS011;3135;42.602;23.468;2022-12-10T09:41:01;16.58;;;6.85;;
6203;SDS011;3135;42.602;23.468;2022-12-10T09:43:48;19.30;;;7.60;;
6203;SDS011;3135;42.602;23.468;2022-12-10T09:46:23;17.63;;;8.27;;
6203;SDS011;3135;42.602;23.468;2022-12-10T09:51:38;28.67;;;12.90;;
6203;SDS011;3135;42.602;23.468;2022-12-10T09:54:05;26.15;;;11.00;;
6203;SDS011;3135;42.602;23.468;2022-12-10T09:56:41;37.33;;;15.73;;
6203;SDS011;3135;42.602;23.468;2022-12-10T09:59:12;48.90;;;18.35;;
6203;SDS011;3135;42.602;23.468;2022-12-10T10:01:43;37.00;;;15.13;;
6203;SDS011;3135;42.602;23.468;2022-12-10T10:04:10;41.40;;;16.52;;
6203;SDS011;3135;42.602;23.468;2022-12-10T10:06:36;37.28;;;16.10;;
6203;SDS011;3135;42.602;23.468;2022-12-10T10:09:02;37.33;;;15.95;;
6203;SDS011;3135;42.602;23.468;2022-12-10T10:11:31;35.00;;;13.82;;
6203;SDS011;3135;42.602;23.468;2022-12-10T10:14:04;31.93;;;13.17;;
6203;SDS011;3135;42.602;23.468;2022-12-10T10:19:18;47.65;;;18.48;;
6203;SDS011;3135;42.602;23.468;2022-12-10T10:22:04;139.00;;;41.87;;
6203;SDS011;3135;42.602;23.468;2022-12-10T10:24:34;83.25;;;28.13;;
6203;SDS011;3135;42.602;23.468;2022-12-10T10:27:16;39.65;;;15.85;;
6203;SDS011;3135;42.602;23.468;2022-12-10T10:29:44;19.35;;;8.65;;
6203;SDS011;3135;42.602;23.468;2022-12-10T10:32:15;15.07;;;8.38;;
6203;SDS011;3135;42.602;23.468;2022-12-10T10:34:46;18.88;;;9.23;;
6203;SDS011;3135;42.602;23.468;2022-12-10T10:37:21;18.58;;;8.20;;
6203;SDS011;3135;42.602;23.468;2022-12-10T10:39:52;18.17;;;8.70;;
6203;SDS011;3135;42.602;23.468;2022-12-10T10:45:04;18.63;;;8.93;;
6203;SDS011;3135;42.602;23.468;2022-12-10T10:47:50;16.50;;;7.63;;
6203;SDS011;3135;42.602;23.468;2022-12-10T10:56:58;11.82;;;5.10;;
6203;SDS011;3135;42.602;23.468;2022-12-10T11:01:49;38.80;;;14.25;;
6203;SDS011;3135;42.602;23.468;2022-12-10T11:04:18;28.52;;;12.73;;
6203;SDS011;3135;42.602;23.468;2022-12-10T11:06:54;20.95;;;9.88;;
6203;SDS011;3135;42.602;23.468;2022-12-10T11:09:24;20.80;;;9.95;;
6203;SDS011;3135;42.602;23.468;2022-12-10T11:12:00;18.73;;;8.45;;
6203;SDS011;3135;42.602;23.468;2022-12-10T11:14:30;16.50;;;8.63;;
6203;SDS011;3135;42.602;23.468;2022-12-10T11:17:02;17.38;;;8.18;;
6203;SDS011;3135;42.602;23.468;2022-12-10T11:19:43;17.52;;;8.38;;
6203;SDS011;3135;42.602;23.468;2022-12-10T11:22:21;21.77;;;9.15;;
6203;SDS011;3135;42.602;23.468;2022-12-10T11:24:49;24.40;;;9.98;;
6203;SDS011;3135;42.602;23.468;2022-12-10T11:27:18;18.27;;;8.73;;
6203;SDS011;3135;42.602;23.468;2022-12-10T11:32:25;20.75;;;8.82;;
6203;SDS011;3135;42.602;23.468;2022-12-10T11:35:13;19.27;;;8.70;;
6203;SDS011;3135;42.602;23.468;2022-12-10T11:40:27;22.27;;;10.13;;
6203;SDS011;3135;42.602;23.468;2022-12-10T11:51:09;19.48;;;8.02;;
6203;SDS011;3135;42.602;23.468;2022-12-10T11:59:05;13.77;;;6.07;;
6203;SDS011;3135;42.602;23.468;2022-12-10T12:02:30;2.55;;;1.58;;
6203;SDS011;3135;42.602;23.468;2022-12-10T12:04:44;3.08;;;1.30;;
6203;SDS011;3135;42.602;23.468;2022-12-10T12:13:08;9.80;;;4.05;;
6203;SDS011;3135;42.602;23.468;2022-12-10T12:15:46;9.27;;;4.33;;
6203;SDS011;3135;42.602;23.468;2022-12-10T12:20:45;11.57;;;5.63;;
6203;SDS011;3135;42.602;23.468;2022-12-10T12:25:48;14.80;;;6.45;;
6203;SDS011;3135;42.602;23.468;2022-12-10T12:28:22;14.95;;;7.20;;
6203;SDS011;3135;42.602;23.468;2022-12-10T12:31:05;14.80;;;6.60;;
6203;SDS011;3135;42.602;23.468;2022-12-10T12:36:22;19.58;;;6.38;;
6203;SDS011;3135;42.602;23.468;2022-12-10T12:41:43;10.90;;;6.43;;
6203;SDS011;3135;42.602;23.468;2022-12-10T12:44:24;12.85;;;6.22;;
6203;SDS011;3135;42.602;23.468;2022-12-10T12:47:22;10.27;;;5.70;;
6203;SDS011;3135;42.602;23.468;2022-12-10T12:49:59;11.05;;;5.45;;
6203;SDS011;3135;42.602;23.468;2022-12-10T12:55:16;20.27;;;11.35;;
6203;SDS011;3135;42.602;23.468;2022-12-10T12:57:55;22.50;;;11.63;;
6203;SDS011;3135;42.602;23.468;2022-12-10T13:00:34;21.02;;;11.30;;
6203;SDS011;3135;42.602;23.468;2022-12-10T13:05:54;20.15;;;10.38;;
6203;SDS011;3135;42.602;23.468;2022-12-10T13:13:38;30.15;;;14.93;;
6203;SDS011;3135;42.602;23.468;2022-12-10T13:24:20;23.42;;;10.45;;
6203;SDS011;3135;42.602;23.468;2022-12-10T13:27:03;23.58;;;11.48;;
6203;SDS011;3135;42.602;23.468;2022-12-10T13:29:44;15.98;;;8.95;;
6203;SDS011;3135;42.602;23.468;2022-12-10T13:37:33;4.70;;;2.20;;
6203;SDS011;3135;42.602;23.468;2022-12-10T13:42:40;6.82;;;3.20;;
6203;SDS011;3135;42.602;23.468;2022-12-10T13:45:29;6.78;;;3.47;;
6203;SDS011;3135;42.602;23.468;2022-12-10T13:48:17;4.75;;;2.28;;
6203;SDS011;3135;42.602;23.468;2022-12-10T13:51:03;5.13;;;2.58;;
6203;SDS011;3135;42.602;23.468;2022-12-10T13:56:04;7.43;;;2.93;;
6203;SDS011;3135;42.602;23.468;2022-12-10T14:07:00;4.90;;;2.63;;
6203;SDS011;3135;42.602;23.468;2022-12-10T14:09:30;7.37;;;2.73;;
6203;SDS011;3135;42.602;23.468;2022-12-10T14:12:04;7.85;;;3.35;;
6203;SDS011;3135;42.602;23.468;2022-12-10T14:14:36;5.80;;;2.67;;
6203;SDS011;3135;42.602;23.468;2022-12-10T14:17:12;6.27;;;2.70;;
6203;SDS011;3135;42.602;23.468;2022-12-10T14:19:43;4.63;;;2.90;;
6203;SDS011;3135;42.602;23.468;2022-12-10T14:22:24;5.67;;;2.73;;
6203;SDS011;3135;42.602;23.468;2022-12-10T14:25:01;5.35;;;2.50;;
6203;SDS011;3135;42.602;23.468;2022-12-10T14:27:31;6.88;;;2.95;;
6203;SDS011;3135;42.602;23.468;2022-12-10T14:30:14;5.63;;;2.93;;
6203;SDS011;3135;42.602;23.468;2022-12-10T14:32:44;9.80;;;2.95;;
6203;SDS011;3135;42.602;23.468;2022-12-10T14:35:15;8.85;;;2.65;;
6203;SDS011;3135;42.602;23.468;2022-12-10T14:37:44;3.92;;;2.75;;
6203;SDS011;3135;42.602;23.468;2022-12-10T14:40:17;8.35;;;3.15;;
6203;SDS011;3135;42.602;23.468;2022-12-10T14:43:04;10.07;;;3.10;;
6203;SDS011;3135;42.602;23.468;2022-12-10T14:45:37;7.72;;;3.15;;
6203;SDS011;3135;42.602;23.468;2022-12-10T14:48:13;7.50;;;3.20;;
6203;SDS011;3135;42.602;23.468;2022-12-10T14:50:41;8.40;;;3.23;;
6203;SDS011;3135;42.602;23.468;2022-12-10T14:53:23;9.10;;;3.08;;
6203;SDS011;3135;42.602;23.468;2022-12-10T14:55:53;8.35;;;2.80;;
6203;SDS011;3135;42.602;23.468;2022-12-10T14:58:27;3.90;;;2.50;;
6203;SDS011;3135;42.602;23.468;2022-12-10T15:00:56;6.22;;;2.83;;
6203;SDS011;3135;42.602;23.468;2022-12-10T15:03:27;7.38;;;2.53;;
6203;SDS011;3135;42.602;23.468;2022-12-10T15:05:56;5.20;;;2.77;;
6203;SDS011;3135;42.602;23.468;2022-12-10T15:08:25;8.05;;;2.97;;
6203;SDS011;3135;42.602;23.468;2022-12-10T15:10:52;8.93;;;3.15;;
6203;SDS011;3135;42.602;23.468;2022-12-10T15:13:37;6.63;;;3.08;;
6203;SDS011;3135;42.602;23.468;2022-12-10T15:16:05;7.28;;;3.30;;
6203;SDS011;3135;42.602;23.468;2022-12-10T15:18:32;5.82;;;2.90;;
6203;SDS011;3135;42.602;23.468;2022-12-10T15:21:04;5.90;;;2.90;;
6203;SDS011;3135;42.602;23.468;2022-12-10T15:23:34;6.78;;;2.90;;
6203;SDS011;3135;42.602;23.468;2022-12-10T15:26:04;7.07;;;3.13;;
6203;SDS011;3135;42.602;23.468;2022-12-10T15:28:39;3.42;;;2.63;;
6203;SDS011;3135;42.602;23.468;2022-12-10T15:33:44;7.93;;;3.07;;
6203;SDS011;3135;42.602;23.468;2022-12-10T15:36:15;3.95;;;2.90;;
6203;SDS011;3135;42.602;23.468;2022-12-10T15:38:55;7.10;;;3.13;;
6203;SDS011;3135;42.602;23.468;2022-12-10T15:47:05;5.60;;;2.90;;
6203;SDS011;3135;42.602;23.468;2022-12-10T15:49:35;6.50;;;3.17;;
6203;SDS011;3135;42.602;23.468;2022-12-10T15:52:01;5.77;;;3.50;;
6203;SDS011;3135;42.602;23.468;2022-12-10T15:54:28;6.10;;;3.30;;
6203;SDS011;3135;42.602;23.468;2022-12-10T15:59:46;10.48;;;3.55;;
6203;SDS011;3135;42.602;23.468;2022-12-10T16:05:22;7.63;;;3.08;;
6203;SDS011;3135;42.602;23.468;2022-12-10T16:07:49;6.90;;;3.05;;
6203;SDS011;3135;42.602;23.468;2022-12-10T16:10:17;6.28;;;2.80;;
6203;SDS011;3135;42.602;23.468;2022-12-10T16:12:48;7.60;;;3.80;;
6203;SDS011;3135;42.602;23.468;2022-12-10T16:15:24;7.43;;;3.37;;
6203;SDS011;3135;42.602;23.468;2022-12-10T16:17:52;8.80;;;3.70;;
6203;SDS011;3135;42.602;23.468;2022-12-10T16:20:25;8.53;;;2.93;;
6203;SDS011;3135;42.602;23.468;2022-12-10T16:22:52;8.27;;;3.20;;
6203;SDS011;3135;42.602;23.468;2022-12-10T16:25:19;6.93;;;3.80;;
6203;SDS011;3135;42.602;23.468;2022-12-10T16:27:45;7.32;;;3.97;;
6203;SDS011;3135;42.602;23.468;2022-12-10T16:32:37;21.50;;;7.20;;
6203;SDS011;3135;42.602;23.468;2022-12-10T16:35:02;12.77;;;4.05;;
6203;SDS011;3135;42.602;23.468;2022-12-10T16:37:28;8.70;;;2.70;;
6203;SDS011;3135;42.602;23.468;2022-12-10T16:39:53;6.27;;;2.90;;
6203;SDS011;3135;42.602;23.468;2022-12-10T16:42:19;5.43;;;3.23;;
6203;SDS011;3135;42.602;23.468;2022-12-10T16:44:44;6.77;;;2.67;;
6203;SDS011;3135;42.602;23.468;2022-12-10T16:47:11;9.15;;;3.38;;
6203;SDS011;3135;42.602;23.468;2022-12-10T16:49:37;6.10;;;2.50;;
6203;SDS011;3135;42.602;23.468;2022-12-10T16:52:02;4.10;;;2.17;;
6203;SDS011;3135;42.602;23.468;2022-12-10T16:54:29;7.05;;;2.47;;
6203;SDS011;3135;42.602;23.468;2022-12-10T16:56:54;7.10;;;2.60;;
6203;SDS011;3135;42.602;23.468;2022-12-10T16:59:20;11.05;;;5.25;;
6203;SDS011;3135;42.602;23.468;2022-12-10T17:01:45;10.43;;;5.47;;
6203;SDS011;3135;42.602;23.468;2022-12-10T17:04:11;10.80;;;4.70;;
6203;SDS011;3135;42.602;23.468;2022-12-10T17:06:36;7.13;;;2.60;;
6203;SDS011;3135;42.602;23.468;2022-12-10T17:09:02;4.43;;;2.50;;
6203;SDS011;3135;42.602;23.468;2022-12-10T17:11:29;6.40;;;2.40;;
6203;SDS011;3135;42.602;23.468;2022-12-10T17:14:13;7.53;;;3.33;;